sensor_id;sensor_type;location;lat;lon;timestamp;P1;durP1;ratioP1;P2;durP2;ratioP2
83096;SDS011;72968;49.460;11.004;2023-12-20T00:02:01;6.15;;;3.10;;
83096;SDS011;72968;49.460;11.004;2023-12-20T00:04:34;5.85;;;2.80;;
83096;SDS011;72968;49.460;11.004;2023-12-20T00:07:05;5.40;;;2.88;;
83096;SDS011;72968;49.460;11.004;2023-12-20T00:09:37;5.82;;;3.30;;
83096;SDS011;72968;49.460;11.004;2023-12-20T00:12:08;5.38;;;2.70;;
83096;SDS011;72968;49.460;11.004;2023-12-20T00:14:40;3.78;;;2.30;;
83096;SDS011;72968;49.460;11.004;2023-12-20T00:17:11;5.38;;;2.92;;
83096;SDS011;72968;49.460;11.004;2023-12-20T00:19:44;4.95;;;2.78;;
83096;SDS011;72968;49.460;11.004;2023-12-20T00:22:15;8.52;;;3.45;;
83096;SDS011;72968;49.460;11.004;2023-12-20T00:24:47;7.32;;;3.13;;
83096;SDS011;72968;49.460;11.004;2023-12-20T00:27:18;4.57;;;2.75;;
83096;SDS011;72968;49.460;11.004;2023-12-20T00:29:49;7.20;;;3.20;;
83096;SDS011;72968;49.460;11.004;2023-12-20T00:32:20;5.65;;;3.00;;
83096;SDS011;72968;49.460;11.004;2023-12-20T00:34:53;6.57;;;3.35;;
83096;SDS011;72968;49.460;11.004;2023-12-20T00:37:25;6.30;;;3.17;;
83096;SDS011;72968;49.460;11.004;2023-12-20T00:39:56;5.60;;;2.97;;
83096;SDS011;72968;49.460;11.004;2023-12-20T00:42:27;5.85;;;2.97;;
83096;SDS011;72968;49.460;11.004;2023-12-20T00:44:59;7.22;;;3.20;;
83096;SDS011;72968;49.460;11.004;2023-12-20T00:47:30;6.05;;;3.25;;
83096;SDS011;72968;49.460;11.004;2023-12-20T00:50:03;8.75;;;3.38;;
83096;SDS011;72968;49.460;11.004;2023-12-20T00:52:35;7.53;;;3.28;;
83096;SDS011;72968;49.460;11.004;2023-12-20T00:55:06;8.73;;;3.35;;
83096;SDS011;72968;49.460;11.004;2023-12-20T00:57:38;5.53;;;3.00;;
83096;SDS011;72968;49.460;11.004;2023-12-20T01:00:09;4.72;;;2.70;;
83096;SDS011;72968;49.460;11.004;2023-12-20T01:02:41;6.70;;;3.33;;
83096;SDS011;72968;49.460;11.004;2023-12-20T01:05:14;5.75;;;2.55;;
83096;SDS011;72968;49.460;11.004;2023-12-20T01:07:45;6.18;;;2.58;;
83096;SDS011;72968;49.460;11.004;2023-12-20T01:10:16;4.32;;;2.20;;
83096;SDS011;72968;49.460;11.004;2023-12-20T01:12:48;6.50;;;3.00;;
83096;SDS011;72968;49.460;11.004;2023-12-20T01:15:20;5.38;;;2.58;;
83096;SDS011;72968;49.460;11.004;2023-12-20T01:17:51;4.13;;;2.45;;
83096;SDS011;72968;49.460;11.004;2023-12-20T01:20:24;3.88;;;1.98;;
83096;SDS011;72968;49.460;11.004;2023-12-20T01:22:55;4.15;;;1.63;;
83096;SDS011;72968;49.460;11.004;2023-12-20T01:25:27;3.88;;;2.15;;
83096;SDS011;72968;49.460;11.004;2023-12-20T01:27:58;3.90;;;1.88;;
83096;SDS011;72968;49.460;11.004;2023-12-20T01:30:29;4.65;;;1.80;;
83096;SDS011;72968;49.460;11.004;2023-12-20T01:33:01;2.47;;;1.45;;
83096;SDS011;72968;49.460;11.004;2023-12-20T01:35:33;4.07;;;1.67;;
83096;SDS011;72968;49.460;11.004;2023-12-20T01:38:05;4.32;;;1.70;;
83096;SDS011;72968;49.460;11.004;2023-12-20T01:40:37;2.53;;;1.60;;
83096;SDS011;72968;49.460;11.004;2023-12-20T01:43:08;2.42;;;1.20;;
83096;SDS011;72968;49.460;11.004;2023-12-20T01:45:39;2.97;;;1.45;;
83096;SDS011;72968;49.460;11.004;2023-12-20T01:48:11;2.88;;;1.27;;
83096;SDS011;72968;49.460;11.004;2023-12-20T01:50:43;3.17;;;1.40;;
83096;SDS011;72968;49.460;11.004;2023-12-20T01:53:15;2.50;;;1.45;;
83096;SDS011;72968;49.460;11.004;2023-12-20T01:55:46;2.70;;;1.50;;
83096;SDS011;72968;49.460;11.004;2023-12-20T01:58:19;4.50;;;1.48;;
83096;SDS011;72968;49.460;11.004;2023-12-20T02:00:51;2.75;;;1.63;;
83096;SDS011;72968;49.460;11.004;2023-12-20T02:03:22;4.13;;;1.40;;
83096;SDS011;72968;49.460;11.004;2023-12-20T02:05:55;2.05;;;1.08;;
83096;SDS011;72968;49.460;11.004;2023-12-20T02:08:26;2.00;;;1.20;;
83096;SDS011;72968;49.460;11.004;2023-12-20T02:10:58;2.10;;;1.00;;
83096;SDS011;72968;49.460;11.004;2023-12-20T02:13:30;2.05;;;1.10;;
83096;SDS011;72968;49.460;11.004;2023-12-20T02:16:01;1.90;;;1.15;;
83096;SDS011;72968;49.460;11.004;2023-12-20T02:18:33;1.75;;;1.15;;
83096;SDS011;72968;49.460;11.004;2023-12-20T02:21:05;1.85;;;0.90;;
83096;SDS011;72968;49.460;11.004;2023-12-20T02:23:38;1.88;;;1.10;;
83096;SDS011;72968;49.460;11.004;2023-12-20T02:26:09;2.15;;;0.85;;
83096;SDS011;72968;49.460;11.004;2023-12-20T02:28:43;2.10;;;0.75;;
83096;SDS011;72968;49.460;11.004;2023-12-20T02:31:14;2.05;;;0.85;;
83096;SDS011;72968;49.460;11.004;2023-12-20T02:33:45;2.65;;;0.70;;
83096;SDS011;72968;49.460;11.004;2023-12-20T02:36:17;1.42;;;0.73;;
83096;SDS011;72968;49.460;11.004;2023-12-20T02:38:49;1.63;;;0.77;;
83096;SDS011;72968;49.460;11.004;2023-12-20T02:41:21;1.13;;;0.70;;
83096;SDS011;72968;49.460;11.004;2023-12-20T02:43:52;1.00;;;0.60;;
83096;SDS011;72968;49.460;11.004;2023-12-20T02:46:23;1.55;;;0.82;;
83096;SDS011;72968;49.460;11.004;2023-12-20T02:48:55;1.55;;;0.90;;
83096;SDS011;72968;49.460;11.004;2023-12-20T02:51:26;1.48;;;0.77;;
83096;SDS011;72968;49.460;11.004;2023-12-20T02:53:59;1.90;;;0.90;;
83096;SDS011;72968;49.460;11.004;2023-12-20T02:56:30;1.60;;;0.90;;
83096;SDS011;72968;49.460;11.004;2023-12-20T02:59:01;2.15;;;0.73;;
83096;SDS011;72968;49.460;11.004;2023-12-20T03:01:35;1.17;;;0.63;;
83096;SDS011;72968;49.460;11.004;2023-12-20T03:06:43;1.10;;;0.50;;
83096;SDS011;72968;49.460;11.004;2023-12-20T03:09:16;1.58;;;0.82;;
83096;SDS011;72968;49.460;11.004;2023-12-20T03:11:47;1.27;;;0.60;;
83096;SDS011;72968;49.460;11.004;2023-12-20T03:14:19;1.08;;;0.52;;
83096;SDS011;72968;49.460;11.004;2023-12-20T03:16:50;1.00;;;0.52;;
83096;SDS011;72968;49.460;11.004;2023-12-20T03:19:21;1.17;;;0.55;;
83096;SDS011;72968;49.460;11.004;2023-12-20T03:21:53;1.23;;;0.60;;
83096;SDS011;72968;49.460;11.004;2023-12-20T03:24:25;1.77;;;0.88;;
83096;SDS011;72968;49.460;11.004;2023-12-20T03:26:57;1.27;;;0.70;;
83096;SDS011;72968;49.460;11.004;2023-12-20T03:29:28;0.98;;;0.65;;
83096;SDS011;72968;49.460;11.004;2023-12-20T03:31:59;2.05;;;0.88;;
83096;SDS011;72968;49.460;11.004;2023-12-20T03:34:31;1.23;;;0.68;;
83096;SDS011;72968;49.460;11.004;2023-12-20T03:37:02;1.73;;;0.85;;
83096;SDS011;72968;49.460;11.004;2023-12-20T03:39:35;1.83;;;1.00;;
83096;SDS011;72968;49.460;11.004;2023-12-20T03:42:06;2.47;;;0.98;;
83096;SDS011;72968;49.460;11.004;2023-12-20T03:44:38;1.65;;;1.00;;
83096;SDS011;72968;49.460;11.004;2023-12-20T03:47:09;1.33;;;0.75;;
83096;SDS011;72968;49.460;11.004;2023-12-20T03:49:40;1.38;;;0.77;;
83096;SDS011;72968;49.460;11.004;2023-12-20T03:52:12;2.28;;;1.10;;
83096;SDS011;72968;49.460;11.004;2023-12-20T03:54:44;1.35;;;0.80;;
83096;SDS011;72968;49.460;11.004;2023-12-20T03:57:16;1.35;;;0.82;;
83096;SDS011;72968;49.460;11.004;2023-12-20T03:59:47;2.03;;;1.00;;
83096;SDS011;72968;49.460;11.004;2023-12-20T04:02:19;6.97;;;1.23;;
83096;SDS011;72968;49.460;11.004;2023-12-20T04:04:50;2.20;;;0.98;;
83096;SDS011;72968;49.460;11.004;2023-12-20T04:07:23;0.95;;;0.63;;
83096;SDS011;72968;49.460;11.004;2023-12-20T04:09:55;1.40;;;0.93;;
83096;SDS011;72968;49.460;11.004;2023-12-20T04:12:27;1.55;;;0.85;;
83096;SDS011;72968;49.460;11.004;2023-12-20T04:14:59;1.70;;;0.73;;
83096;SDS011;72968;49.460;11.004;2023-12-20T04:17:30;1.48;;;0.75;;
83096;SDS011;72968;49.460;11.004;2023-12-20T04:20:02;2.00;;;0.95;;
83096;SDS011;72968;49.460;11.004;2023-12-20T04:22:33;1.30;;;0.77;;
83096;SDS011;72968;49.460;11.004;2023-12-20T04:25:06;1.63;;;0.90;;
83096;SDS011;72968;49.460;11.004;2023-12-20T04:27:38;1.52;;;0.82;;
83096;SDS011;72968;49.460;11.004;2023-12-20T04:30:09;1.70;;;0.88;;
83096;SDS011;72968;49.460;11.004;2023-12-20T04:32:41;1.42;;;0.65;;
83096;SDS011;72968;49.460;11.004;2023-12-20T04:35:12;1.20;;;0.60;;
83096;SDS011;72968;49.460;11.004;2023-12-20T04:37:43;1.13;;;0.60;;
83096;SDS011;72968;49.460;11.004;2023-12-20T04:40:16;1.50;;;0.82;;
83096;SDS011;72968;49.460;11.004;2023-12-20T04:42:47;1.20;;;0.88;;
83096;SDS011;72968;49.460;11.004;2023-12-20T04:45:19;2.10;;;0.70;;
83096;SDS011;72968;49.460;11.004;2023-12-20T04:47:50;1.27;;;0.70;;
83096;SDS011;72968;49.460;11.004;2023-12-20T04:50:21;2.13;;;0.98;;
83096;SDS011;72968;49.460;11.004;2023-12-20T04:52:53;2.05;;;1.08;;
83096;SDS011;72968;49.460;11.004;2023-12-20T04:55:26;2.15;;;0.95;;
83096;SDS011;72968;49.460;11.004;2023-12-20T04:57:57;1.58;;;0.70;;
83096;SDS011;72968;49.460;11.004;2023-12-20T05:00:28;0.93;;;0.52;;
83096;SDS011;72968;49.460;11.004;2023-12-20T05:03:00;1.30;;;0.75;;
83096;SDS011;72968;49.460;11.004;2023-12-20T05:05:31;1.50;;;0.80;;
83096;SDS011;72968;49.460;11.004;2023-12-20T05:08:03;1.55;;;0.85;;
83096;SDS011;72968;49.460;11.004;2023-12-20T05:10:36;1.40;;;0.70;;
83096;SDS011;72968;49.460;11.004;2023-12-20T05:13:08;1.90;;;1.00;;
83096;SDS011;72968;49.460;11.004;2023-12-20T05:15:39;1.25;;;0.60;;
83096;SDS011;72968;49.460;11.004;2023-12-20T05:18:10;2.03;;;1.00;;
83096;SDS011;72968;49.460;11.004;2023-12-20T05:20:42;2.03;;;0.95;;
83096;SDS011;72968;49.460;11.004;2023-12-20T05:23:13;1.20;;;0.70;;
83096;SDS011;72968;49.460;11.004;2023-12-20T05:25:46;1.23;;;0.60;;
83096;SDS011;72968;49.460;11.004;2023-12-20T05:28:17;1.75;;;0.93;;
83096;SDS011;72968;49.460;11.004;2023-12-20T05:30:48;1.88;;;1.08;;
83096;SDS011;72968;49.460;11.004;2023-12-20T05:33:20;1.90;;;0.80;;
83096;SDS011;72968;49.460;11.004;2023-12-20T05:35:51;1.40;;;0.80;;
83096;SDS011;72968;49.460;11.004;2023-12-20T05:38:22;1.40;;;0.90;;
83096;SDS011;72968;49.460;11.004;2023-12-20T05:40:55;1.73;;;1.00;;
83096;SDS011;72968;49.460;11.004;2023-12-20T05:43:26;1.42;;;0.75;;
83096;SDS011;72968;49.460;11.004;2023-12-20T05:45:58;1.58;;;0.98;;
83096;SDS011;72968;49.460;11.004;2023-12-20T05:48:29;1.75;;;1.05;;
83096;SDS011;72968;49.460;11.004;2023-12-20T05:51:00;2.45;;;1.50;;
83096;SDS011;72968;49.460;11.004;2023-12-20T05:53:31;1.33;;;0.70;;
83096;SDS011;72968;49.460;11.004;2023-12-20T05:56:05;2.58;;;1.05;;
83096;SDS011;72968;49.460;11.004;2023-12-20T05:58:36;1.15;;;0.65;;
83096;SDS011;72968;49.460;11.004;2023-12-20T06:01:07;1.48;;;0.90;;
83096;SDS011;72968;49.460;11.004;2023-12-20T06:03:40;2.75;;;1.33;;
83096;SDS011;72968;49.460;11.004;2023-12-20T06:06:11;2.00;;;1.15;;
83096;SDS011;72968;49.460;11.004;2023-12-20T06:08:43;2.17;;;1.23;;
83096;SDS011;72968;49.460;11.004;2023-12-20T06:11:15;2.13;;;1.17;;
83096;SDS011;72968;49.460;11.004;2023-12-20T06:13:47;2.05;;;1.20;;
83096;SDS011;72968;49.460;11.004;2023-12-20T06:16:19;1.30;;;0.80;;
83096;SDS011;72968;49.460;11.004;2023-12-20T06:18:50;2.75;;;1.85;;
83096;SDS011;72968;49.460;11.004;2023-12-20T06:21:21;2.50;;;1.25;;
83096;SDS011;72968;49.460;11.004;2023-12-20T06:23:53;2.45;;;1.30;;
83096;SDS011;72968;49.460;11.004;2023-12-20T06:26:26;2.45;;;1.20;;
83096;SDS011;72968;49.460;11.004;2023-12-20T06:28:57;5.10;;;1.30;;
83096;SDS011;72968;49.460;11.004;2023-12-20T06:31:29;3.10;;;1.50;;
83096;SDS011;72968;49.460;11.004;2023-12-20T06:34:00;5.50;;;1.50;;
83096;SDS011;72968;49.460;11.004;2023-12-20T06:36:31;2.42;;;1.70;;
83096;SDS011;72968;49.460;11.004;2023-12-20T06:39:03;2.28;;;1.42;;
83096;SDS011;72968;49.460;11.004;2023-12-20T06:41:36;2.28;;;1.48;;
83096;SDS011;72968;49.460;11.004;2023-12-20T06:44:07;2.50;;;1.52;;
83096;SDS011;72968;49.460;11.004;2023-12-20T06:46:39;3.63;;;2.28;;
83096;SDS011;72968;49.460;11.004;2023-12-20T06:49:10;3.13;;;1.92;;
83096;SDS011;72968;49.460;11.004;2023-12-20T06:51:42;2.80;;;1.95;;
83096;SDS011;72968;49.460;11.004;2023-12-20T06:54:13;4.30;;;2.28;;
83096;SDS011;72968;49.460;11.004;2023-12-20T06:56:46;5.28;;;2.83;;
83096;SDS011;72968;49.460;11.004;2023-12-20T06:59:17;3.17;;;1.88;;
83096;SDS011;72968;49.460;11.004;2023-12-20T07:01:49;3.58;;;1.95;;
83096;SDS011;72968;49.460;11.004;2023-12-20T07:04:20;3.22;;;2.20;;
83096;SDS011;72968;49.460;11.004;2023-12-20T07:06:52;4.18;;;2.35;;
83096;SDS011;72968;49.460;11.004;2023-12-20T07:09:27;4.70;;;2.85;;
83096;SDS011;72968;49.460;11.004;2023-12-20T07:11:59;3.88;;;2.47;;
83096;SDS011;72968;49.460;11.004;2023-12-20T07:14:31;3.85;;;2.35;;
83096;SDS011;72968;49.460;11.004;2023-12-20T07:17:02;4.70;;;2.50;;
83096;SDS011;72968;49.460;11.004;2023-12-20T07:19:37;4.43;;;2.50;;
83096;SDS011;72968;49.460;11.004;2023-12-20T07:22:09;3.08;;;2.08;;
83096;SDS011;72968;49.460;11.004;2023-12-20T07:24:41;3.28;;;1.90;;
83096;SDS011;72968;49.460;11.004;2023-12-20T07:27:13;4.80;;;2.63;;
83096;SDS011;72968;49.460;11.004;2023-12-20T07:29:45;4.35;;;2.63;;
83096;SDS011;72968;49.460;11.004;2023-12-20T07:32:16;4.25;;;2.65;;
83096;SDS011;72968;49.460;11.004;2023-12-20T07:34:48;4.60;;;2.88;;
83096;SDS011;72968;49.460;11.004;2023-12-20T07:37:19;5.72;;;2.80;;
83096;SDS011;72968;49.460;11.004;2023-12-20T07:39:51;4.70;;;2.50;;
83096;SDS011;72968;49.460;11.004;2023-12-20T07:42:25;4.53;;;2.63;;
83096;SDS011;72968;49.460;11.004;2023-12-20T07:44:56;4.45;;;2.80;;
83096;SDS011;72968;49.460;11.004;2023-12-20T07:47:28;6.25;;;2.75;;
83096;SDS011;72968;49.460;11.004;2023-12-20T07:49:59;4.10;;;2.00;;
83096;SDS011;72968;49.460;11.004;2023-12-20T07:52:30;4.47;;;2.83;;
83096;SDS011;72968;49.460;11.004;2023-12-20T07:55:02;5.57;;;3.05;;
83096;SDS011;72968;49.460;11.004;2023-12-20T07:57:38;4.82;;;2.72;;
83096;SDS011;72968;49.460;11.004;2023-12-20T08:00:10;5.05;;;2.83;;
83096;SDS011;72968;49.460;11.004;2023-12-20T08:02:41;5.38;;;2.53;;
83096;SDS011;72968;49.460;11.004;2023-12-20T08:05:13;4.63;;;2.88;;
83096;SDS011;72968;49.460;11.004;2023-12-20T08:07:44;5.90;;;3.17;;
83096;SDS011;72968;49.460;11.004;2023-12-20T08:10:16;5.63;;;2.47;;
83096;SDS011;72968;49.460;11.004;2023-12-20T08:12:50;4.95;;;2.80;;
83096;SDS011;72968;49.460;11.004;2023-12-20T08:15:21;5.07;;;2.63;;
83096;SDS011;72968;49.460;11.004;2023-12-20T08:17:53;4.10;;;2.67;;
83096;SDS011;72968;49.460;11.004;2023-12-20T08:20:24;5.05;;;2.63;;
83096;SDS011;72968;49.460;11.004;2023-12-20T08:25:51;3.67;;;2.15;;
83096;SDS011;72968;49.460;11.004;2023-12-20T08:28:24;3.42;;;2.03;;
83096;SDS011;72968;49.460;11.004;2023-12-20T08:30:55;4.85;;;2.97;;
83096;SDS011;72968;49.460;11.004;2023-12-20T08:33:27;5.85;;;2.63;;
83096;SDS011;72968;49.460;11.004;2023-12-20T08:35:58;4.15;;;2.53;;
83096;SDS011;72968;49.460;11.004;2023-12-20T08:38:30;3.75;;;2.50;;
83096;SDS011;72968;49.460;11.004;2023-12-20T08:41:01;3.08;;;2.08;;
83096;SDS011;72968;49.460;11.004;2023-12-20T08:43:36;4.97;;;2.40;;
83096;SDS011;72968;49.460;11.004;2023-12-20T08:46:10;4.18;;;2.53;;
83096;SDS011;72968;49.460;11.004;2023-12-20T08:48:45;3.78;;;2.30;;
83096;SDS011;72968;49.460;11.004;2023-12-20T08:51:16;4.10;;;2.47;;
83096;SDS011;72968;49.460;11.004;2023-12-20T08:53:49;3.22;;;1.80;;
83096;SDS011;72968;49.460;11.004;2023-12-20T08:56:21;3.97;;;2.20;;
83096;SDS011;72968;49.460;11.004;2023-12-20T08:58:53;3.40;;;2.20;;
83096;SDS011;72968;49.460;11.004;2023-12-20T09:01:25;3.30;;;1.98;;
83096;SDS011;72968;49.460;11.004;2023-12-20T09:03:56;4.32;;;2.55;;
83096;SDS011;72968;49.460;11.004;2023-12-20T09:06:27;4.15;;;2.50;;
83096;SDS011;72968;49.460;11.004;2023-12-20T09:08:58;2.95;;;1.73;;
83096;SDS011;72968;49.460;11.004;2023-12-20T09:11:31;3.50;;;2.03;;
83096;SDS011;72968;49.460;11.004;2023-12-20T09:14:03;5.03;;;2.00;;
83096;SDS011;72968;49.460;11.004;2023-12-20T09:16:35;2.80;;;1.88;;
83096;SDS011;72968;49.460;11.004;2023-12-20T09:19:06;4.82;;;2.30;;
83096;SDS011;72968;49.460;11.004;2023-12-20T09:21:38;2.60;;;1.63;;
83096;SDS011;72968;49.460;11.004;2023-12-20T09:24:10;6.32;;;2.08;;
83096;SDS011;72968;49.460;11.004;2023-12-20T09:26:41;3.08;;;1.73;;
83096;SDS011;72968;49.460;11.004;2023-12-20T09:29:15;4.55;;;2.13;;
83096;SDS011;72968;49.460;11.004;2023-12-20T09:31:47;2.67;;;1.80;;
83096;SDS011;72968;49.460;11.004;2023-12-20T09:34:18;4.15;;;1.65;;
83096;SDS011;72968;49.460;11.004;2023-12-20T09:36:51;2.45;;;1.17;;
83096;SDS011;72968;49.460;11.004;2023-12-20T09:39:22;2.78;;;1.40;;
83096;SDS011;72968;49.460;11.004;2023-12-20T09:41:57;6.82;;;1.58;;
83096;SDS011;72968;49.460;11.004;2023-12-20T09:44:31;2.40;;;1.25;;
83096;SDS011;72968;49.460;11.004;2023-12-20T09:47:03;2.15;;;1.27;;
83096;SDS011;72968;49.460;11.004;2023-12-20T09:49:35;2.30;;;1.25;;
83096;SDS011;72968;49.460;11.004;2023-12-20T09:52:07;1.67;;;1.02;;
83096;SDS011;72968;49.460;11.004;2023-12-20T09:54:40;2.17;;;1.00;;
83096;SDS011;72968;49.460;11.004;2023-12-20T09:57:12;1.52;;;1.02;;
83096;SDS011;72968;49.460;11.004;2023-12-20T09:59:44;7.80;;;1.50;;
83096;SDS011;72968;49.460;11.004;2023-12-20T10:02:16;1.80;;;0.88;;
83096;SDS011;72968;49.460;11.004;2023-12-20T10:04:49;2.58;;;1.00;;
83096;SDS011;72968;49.460;11.004;2023-12-20T10:07:21;2.13;;;1.10;;
83096;SDS011;72968;49.460;11.004;2023-12-20T10:09:53;4.07;;;1.17;;
83096;SDS011;72968;49.460;11.004;2023-12-20T10:12:25;2.83;;;0.90;;
83096;SDS011;72968;49.460;11.004;2023-12-20T10:14:58;4.47;;;1.00;;
83096;SDS011;72968;49.460;11.004;2023-12-20T10:17:30;3.28;;;0.95;;
83096;SDS011;72968;49.460;11.004;2023-12-20T10:20:01;5.40;;;1.52;;
83096;SDS011;72968;49.460;11.004;2023-12-20T10:22:33;4.68;;;1.00;;
83096;SDS011;72968;49.460;11.004;2023-12-20T10:25:04;1.92;;;1.00;;
83096;SDS011;72968;49.460;11.004;2023-12-20T10:27:36;3.88;;;1.30;;
83096;SDS011;72968;49.460;11.004;2023-12-20T10:30:09;2.33;;;1.10;;
83096;SDS011;72968;49.460;11.004;2023-12-20T10:32:41;6.38;;;1.13;;
83096;SDS011;72968;49.460;11.004;2023-12-20T10:35:12;6.88;;;1.10;;
83096;SDS011;72968;49.460;11.004;2023-12-20T10:37:44;1.77;;;1.05;;
83096;SDS011;72968;49.460;11.004;2023-12-20T10:40:15;3.47;;;1.02;;
83096;SDS011;72968;49.460;11.004;2023-12-20T10:42:47;3.17;;;0.95;;
83096;SDS011;72968;49.460;11.004;2023-12-20T10:45:19;2.75;;;1.13;;
83096;SDS011;72968;49.460;11.004;2023-12-20T10:47:51;7.20;;;1.40;;
83096;SDS011;72968;49.460;11.004;2023-12-20T10:50:22;5.30;;;1.00;;
83096;SDS011;72968;49.460;11.004;2023-12-20T10:52:54;2.08;;;1.00;;
83096;SDS011;72968;49.460;11.004;2023-12-20T10:55:26;2.22;;;1.15;;
83096;SDS011;72968;49.460;11.004;2023-12-20T10:58:00;3.22;;;1.02;;
83096;SDS011;72968;49.460;11.004;2023-12-20T11:00:33;3.65;;;1.38;;
83096;SDS011;72968;49.460;11.004;2023-12-20T11:03:06;5.53;;;1.40;;
83096;SDS011;72968;49.460;11.004;2023-12-20T11:05:41;2.47;;;1.30;;
83096;SDS011;72968;49.460;11.004;2023-12-20T11:08:15;4.70;;;1.00;;
83096;SDS011;72968;49.460;11.004;2023-12-20T11:10:49;3.70;;;1.17;;
83096;SDS011;72968;49.460;11.004;2023-12-20T11:13:23;2.67;;;0.80;;
83096;SDS011;72968;49.460;11.004;2023-12-20T11:15:59;2.28;;;1.10;;
83096;SDS011;72968;49.460;11.004;2023-12-20T11:18:31;5.32;;;1.10;;
83096;SDS011;72968;49.460;11.004;2023-12-20T11:21:04;1.90;;;1.00;;
83096;SDS011;72968;49.460;11.004;2023-12-20T11:23:35;4.65;;;1.27;;
83096;SDS011;72968;49.460;11.004;2023-12-20T11:26:09;3.88;;;1.10;;
83096;SDS011;72968;49.460;11.004;2023-12-20T11:28:40;2.53;;;1.00;;
83096;SDS011;72968;49.460;11.004;2023-12-20T11:31:13;3.55;;;1.33;;
83096;SDS011;72968;49.460;11.004;2023-12-20T11:33:45;3.95;;;1.08;;
83096;SDS011;72968;49.460;11.004;2023-12-20T11:36:18;4.97;;;1.00;;
83096;SDS011;72968;49.460;11.004;2023-12-20T11:38:54;4.05;;;1.17;;
83096;SDS011;72968;49.460;11.004;2023-12-20T11:41:27;3.13;;;1.20;;
83096;SDS011;72968;49.460;11.004;2023-12-20T11:43:58;2.20;;;0.93;;
83096;SDS011;72968;49.460;11.004;2023-12-20T11:46:32;4.28;;;0.98;;
83096;SDS011;72968;49.460;11.004;2023-12-20T11:49:04;2.90;;;1.13;;
83096;SDS011;72968;49.460;11.004;2023-12-20T11:51:35;5.20;;;1.50;;
83096;SDS011;72968;49.460;11.004;2023-12-20T11:54:11;4.88;;;1.60;;
83096;SDS011;72968;49.460;11.004;2023-12-20T11:56:42;2.55;;;1.35;;
83096;SDS011;72968;49.460;11.004;2023-12-20T11:59:14;7.07;;;1.42;;
83096;SDS011;72968;49.460;11.004;2023-12-20T12:01:50;2.83;;;1.50;;
83096;SDS011;72968;49.460;11.004;2023-12-20T12:04:22;4.40;;;1.17;;
83096;SDS011;72968;49.460;11.004;2023-12-20T12:06:53;4.15;;;1.25;;
83096;SDS011;72968;49.460;11.004;2023-12-20T12:09:25;2.40;;;1.30;;
83096;SDS011;72968;49.460;11.004;2023-12-20T12:11:56;2.85;;;1.55;;
83096;SDS011;72968;49.460;11.004;2023-12-20T12:14:28;3.72;;;1.33;;
83096;SDS011;72968;49.460;11.004;2023-12-20T12:17:00;3.38;;;1.40;;
83096;SDS011;72968;49.460;11.004;2023-12-20T12:19:32;3.20;;;1.48;;
83096;SDS011;72968;49.460;11.004;2023-12-20T12:22:09;2.85;;;1.20;;
83096;SDS011;72968;49.460;11.004;2023-12-20T12:24:43;2.88;;;1.27;;
83096;SDS011;72968;49.460;11.004;2023-12-20T12:27:15;3.83;;;1.40;;
83096;SDS011;72968;49.460;11.004;2023-12-20T12:30:00;2.83;;;1.20;;
83096;SDS011;72968;49.460;11.004;2023-12-20T12:32:34;4.63;;;1.40;;
83096;SDS011;72968;49.460;11.004;2023-12-20T12:35:06;3.42;;;1.00;;
83096;SDS011;72968;49.460;11.004;2023-12-20T12:37:38;9.00;;;1.52;;
83096;SDS011;72968;49.460;11.004;2023-12-20T12:40:10;2.22;;;1.10;;
83096;SDS011;72968;49.460;11.004;2023-12-20T12:42:43;3.65;;;1.33;;
83096;SDS011;72968;49.460;11.004;2023-12-20T12:45:15;3.00;;;0.90;;
83096;SDS011;72968;49.460;11.004;2023-12-20T12:47:48;5.18;;;1.33;;
83096;SDS011;72968;49.460;11.004;2023-12-20T12:50:19;3.00;;;1.30;;
83096;SDS011;72968;49.460;11.004;2023-12-20T12:52:51;2.10;;;1.10;;
83096;SDS011;72968;49.460;11.004;2023-12-20T12:55:22;4.50;;;1.10;;
83096;SDS011;72968;49.460;11.004;2023-12-20T12:57:54;4.07;;;1.30;;
83096;SDS011;72968;49.460;11.004;2023-12-20T13:00:30;3.13;;;1.02;;
83096;SDS011;72968;49.460;11.004;2023-12-20T13:03:03;4.63;;;1.20;;
83096;SDS011;72968;49.460;11.004;2023-12-20T13:05:35;4.03;;;1.17;;
83096;SDS011;72968;49.460;11.004;2023-12-20T13:08:06;3.97;;;1.00;;
83096;SDS011;72968;49.460;11.004;2023-12-20T13:10:37;2.35;;;1.05;;
83096;SDS011;72968;49.460;11.004;2023-12-20T13:13:09;3.05;;;1.33;;
83096;SDS011;72968;49.460;11.004;2023-12-20T13:15:40;4.15;;;1.13;;
83096;SDS011;72968;49.460;11.004;2023-12-20T13:18:13;3.72;;;1.23;;
83096;SDS011;72968;49.460;11.004;2023-12-20T13:20:44;4.75;;;1.77;;
83096;SDS011;72968;49.460;11.004;2023-12-20T13:23:16;1.95;;;0.93;;
83096;SDS011;72968;49.460;11.004;2023-12-20T13:25:48;1.95;;;1.00;;
83096;SDS011;72968;49.460;11.004;2023-12-20T13:28:19;5.07;;;1.58;;
83096;SDS011;72968;49.460;11.004;2023-12-20T13:30:50;2.70;;;0.90;;
83096;SDS011;72968;49.460;11.004;2023-12-20T13:33:23;2.97;;;1.00;;
83096;SDS011;72968;49.460;11.004;2023-12-20T13:36:04;3.63;;;1.10;;
83096;SDS011;72968;49.460;11.004;2023-12-20T13:38:37;6.10;;;1.20;;
83096;SDS011;72968;49.460;11.004;2023-12-20T13:41:09;2.35;;;1.20;;
83096;SDS011;72968;49.460;11.004;2023-12-20T13:43:40;4.63;;;1.52;;
83096;SDS011;72968;49.460;11.004;2023-12-20T13:46:12;1.67;;;0.77;;
83096;SDS011;72968;49.460;11.004;2023-12-20T13:48:45;2.67;;;1.20;;
83096;SDS011;72968;49.460;11.004;2023-12-20T13:51:16;2.30;;;0.75;;
83096;SDS011;72968;49.460;11.004;2023-12-20T13:53:48;2.95;;;0.93;;
83096;SDS011;72968;49.460;11.004;2023-12-20T13:56:20;2.80;;;1.10;;
83096;SDS011;72968;49.460;11.004;2023-12-20T13:58:52;4.80;;;1.15;;
83096;SDS011;72968;49.460;11.004;2023-12-20T14:01:23;6.07;;;1.23;;
83096;SDS011;72968;49.460;11.004;2023-12-20T14:03:57;2.03;;;0.90;;
83096;SDS011;72968;49.460;11.004;2023-12-20T14:06:31;104.20;;;41.97;;
83096;SDS011;72968;49.460;11.004;2023-12-20T14:09:02;21.77;;;8.60;;
83096;SDS011;72968;49.460;11.004;2023-12-20T14:11:34;603.60;;;218.23;;
83096;SDS011;72968;49.460;11.004;2023-12-20T14:16:43;315.98;;;104.40;;
83096;SDS011;72968;49.460;11.004;2023-12-20T14:19:19;131.82;;;41.55;;
83096;SDS011;72968;49.460;11.004;2023-12-20T14:21:50;115.47;;;37.67;;
83096;SDS011;72968;49.460;11.004;2023-12-20T14:24:22;28.17;;;8.90;;
83096;SDS011;72968;49.460;11.004;2023-12-20T14:26:55;82.38;;;31.42;;
83096;SDS011;72968;49.460;11.004;2023-12-20T14:29:28;111.95;;;45.95;;
83096;SDS011;72968;49.460;11.004;2023-12-20T14:32:00;326.35;;;138.32;;
83096;SDS011;72968;49.460;11.004;2023-12-20T14:34:34;279.20;;;123.00;;
83096;SDS011;72968;49.460;11.004;2023-12-20T14:37:06;147.35;;;62.50;;
83096;SDS011;72968;49.460;11.004;2023-12-20T14:39:38;100.35;;;45.97;;
83096;SDS011;72968;49.460;11.004;2023-12-20T14:42:11;43.92;;;13.90;;
83096;SDS011;72968;49.460;11.004;2023-12-20T14:44:43;139.73;;;43.88;;
83096;SDS011;72968;49.460;11.004;2023-12-20T14:47:17;12.82;;;4.50;;
83096;SDS011;72968;49.460;11.004;2023-12-20T14:49:50;10.60;;;4.78;;
83096;SDS011;72968;49.460;11.004;2023-12-20T14:52:21;91.13;;;28.80;;
83096;SDS011;72968;49.460;11.004;2023-12-20T14:54:53;85.78;;;24.65;;
83096;SDS011;72968;49.460;11.004;2023-12-20T14:57:25;91.32;;;31.88;;
83096;SDS011;72968;49.460;11.004;2023-12-20T14:59:56;299.38;;;109.07;;
83096;SDS011;72968;49.460;11.004;2023-12-20T15:02:27;126.80;;;42.72;;
83096;SDS011;72968;49.460;11.004;2023-12-20T15:05:00;30.30;;;10.10;;
83096;SDS011;72968;49.460;11.004;2023-12-20T15:07:32;14.82;;;5.18;;
83096;SDS011;72968;49.460;11.004;2023-12-20T15:10:03;31.27;;;9.73;;